Terminal Aerodrome Forecast
Issued by NWS

Home | Current Version | Previous Version | Text Only | Print | Product List | Glossary On
Versions: 1 2 3 4 5 6 7 8 9 10 11 12 13 14 15 16 17 18 19 20 21 22 23 24 25
319
FTUS43 KLOT 280540
TAFORD
TAF
KORD 280540Z 2806/2912 19007KT P6SM SCT250
     FM281300 18014KT P6SM FEW045 BKN250
     FM281500 19015G23KT P6SM VCSH SCT045 BKN090
      TEMPO 2816/2819 6SM -SHRA BKN045
     FM281900 19018G28KT P6SM SCT045 BKN120 PROB30 2821/2824 3SM
      TSRA OVC045CB
     FM290000 20017G25KT P6SM BKN060
      TEMPO 2904/2906 3SM TSRA OVC050CB=

USA.gov is the U.S. government's official web portal to all federal, state and local government web resources and services.